createdAt,value
2017-03-23T00:00:27.583Z,1010.58
2017-03-23T00:01:38.768Z,1010.65
2017-03-23T00:02:49.750Z,1010.67
2017-03-23T00:04:00.741Z,1010.66
2017-03-23T00:05:11.772Z,1010.72
2017-03-23T00:06:22.760Z,1010.69
2017-03-23T00:07:33.936Z,1010.71
2017-03-23T00:08:45.119Z,1010.77
2017-03-23T00:09:56.111Z,1010.82
2017-03-23T00:11:07.143Z,1010.81
2017-03-23T00:12:18.539Z,1010.87
2017-03-23T00:13:29.521Z,1010.9
2017-03-23T00:14:40.504Z,1010.93
2017-03-23T00:15:51.488Z,1010.9
2017-03-23T00:17:02.471Z,1010.95
2017-03-23T00:18:13.692Z,1010.95
2017-03-23T00:19:24.715Z,1010.95
2017-03-23T00:20:35.960Z,1010.96
2017-03-23T00:21:46.944Z,1010.95
2017-03-23T00:22:57.934Z,1010.97
2017-03-23T00:24:09.324Z,1010.95
2017-03-23T00:25:20.304Z,1010.93
2017-03-23T00:26:31.532Z,1010.95
2017-03-23T00:27:42.518Z,1010.95
2017-03-23T00:28:53.699Z,1010.98
2017-03-23T00:30:04.684Z,1010.95
2017-03-23T00:31:15.723Z,1010.98
2017-03-23T00:32:26.711Z,1010.98
2017-03-23T00:33:38.103Z,1011.01
2017-03-23T00:34:49.085Z,1011
2017-03-23T00:36:00.066Z,1011.03
2017-03-23T00:37:11.259Z,1011.03
2017-03-23T00:38:22.437Z,1011
2017-03-23T00:39:33.426Z,1011
2017-03-23T00:40:44.612Z,1011.03
2017-03-23T00:41:55.599Z,1011.04
2017-03-23T00:43:06.584Z,1011.05
2017-03-23T00:44:17.974Z,1011.05
2017-03-23T00:45:29.152Z,1011.01
2017-03-23T00:46:40.158Z,1011.03
2017-03-23T00:47:51.344Z,1011.01
2017-03-23T00:49:02.372Z,1011.02
2017-03-23T00:50:13.757Z,1011.05
2017-03-23T00:51:24.745Z,1011
2017-03-23T00:52:35.738Z,1010.98
2017-03-23T00:53:46.726Z,1010.96
2017-03-23T00:54:57.705Z,1010.97
2017-03-23T00:56:08.689Z,1010.91
2017-03-23T00:57:19.676Z,1010.95
2017-03-23T00:58:30.716Z,1010.94
2017-03-23T00:59:41.701Z,1010.96
2017-03-23T01:00:52.696Z,1010.89
2017-03-23T01:02:03.679Z,1010.9
2017-03-23T01:03:15.073Z,1010.89
2017-03-23T01:04:26.072Z,1010.87
2017-03-23T01:05:37.061Z,1010.93
2017-03-23T01:06:48.048Z,1010.96
2017-03-23T01:07:59.041Z,1010.95
2017-03-23T01:09:10.068Z,1010.98
2017-03-23T01:10:21.250Z,1010.98
2017-03-23T01:11:32.636Z,1010.99
2017-03-23T01:12:43.609Z,1010.97
2017-03-23T01:13:54.795Z,1011
2017-03-23T01:15:05.975Z,1010.98
2017-03-23T01:16:16.958Z,1010.98
2017-03-23T01:17:27.943Z,1011
2017-03-23T01:18:39.125Z,1010.97
2017-03-23T01:19:50.099Z,1010.98
2017-03-23T01:21:01.085Z,1011
2017-03-23T01:22:12.279Z,1010.96
2017-03-23T01:23:23.264Z,1010.95
2017-03-23T01:24:34.252Z,1010.9
2017-03-23T01:25:45.239Z,1010.93
2017-03-23T01:26:56.280Z,1010.94
2017-03-23T01:28:07.465Z,1010.92
2017-03-23T01:29:18.443Z,1010.91
2017-03-23T01:30:29.623Z,1010.93
2017-03-23T01:31:40.858Z,1010.91
2017-03-23T01:32:52.043Z,1010.92
2017-03-23T01:34:03.023Z,1010.9
2017-03-23T01:35:14.035Z,1010.9
2017-03-23T01:36:25.076Z,1010.88
2017-03-23T01:37:36.065Z,1010.91
2017-03-23T01:38:47.049Z,1010.86
2017-03-23T01:39:58.040Z,1010.89
2017-03-23T01:41:09.029Z,1010.88
2017-03-23T01:42:20.052Z,1010.86
2017-03-23T01:43:31.241Z,1010.88
2017-03-23T01:44:42.229Z,1010.88
2017-03-23T01:45:53.225Z,1010.87
2017-03-23T01:47:04.261Z,1010.87
2017-03-23T01:48:15.454Z,1010.83
2017-03-23T01:49:26.430Z,1010.85
2017-03-23T01:50:37.412Z,1010.81
2017-03-23T01:51:48.405Z,1010.78
2017-03-23T01:52:59.595Z,1010.79
2017-03-23T01:54:10.579Z,1010.73
2017-03-23T01:55:21.561Z,1010.73
2017-03-23T01:56:32.551Z,1010.71
2017-03-23T01:57:43.537Z,1010.66
2017-03-23T01:58:54.922Z,1010.66
2017-03-23T02:00:06.107Z,1010.64
2017-03-23T02:01:17.091Z,1010.6
2017-03-23T02:02:28.299Z,1010.6
2017-03-23T02:03:39.533Z,1010.62
2017-03-23T02:04:50.521Z,1010.54
2017-03-23T02:06:01.711Z,1010.52
2017-03-23T02:07:12.692Z,1010.56
2017-03-23T02:08:23.686Z,1010.52
2017-03-23T02:09:34.667Z,1010.57
2017-03-23T02:10:45.646Z,1010.54
2017-03-23T02:11:56.640Z,1010.56
2017-03-23T02:13:07.632Z,1010.59
2017-03-23T02:14:18.878Z,1010.6
2017-03-23T02:15:29.866Z,1010.56
2017-03-23T02:16:40.854Z,1010.59
2017-03-23T02:17:51.840Z,1010.58
2017-03-23T02:19:02.825Z,1010.6
2017-03-23T02:20:13.813Z,1010.61
2017-03-23T02:21:24.794Z,1010.61
2017-03-23T02:22:35.782Z,1010.59
2017-03-23T02:23:47.169Z,1010.59
2017-03-23T02:24:58.206Z,1010.56
2017-03-23T02:26:09.180Z,1010.57
2017-03-23T02:27:20.165Z,1010.6
2017-03-23T02:28:31.341Z,1010.59
2017-03-23T02:29:42.327Z,1010.62
2017-03-23T02:30:53.315Z,1010.59
2017-03-23T02:32:04.298Z,1010.63
2017-03-23T02:33:15.279Z,1010.57
2017-03-23T02:34:26.270Z,1010.59
2017-03-23T02:35:37.464Z,1010.57
2017-03-23T02:36:48.455Z,1010.56
2017-03-23T02:37:59.436Z,1010.53
2017-03-23T02:39:10.426Z,1010.51
2017-03-23T02:40:21.458Z,1010.53
2017-03-23T02:41:32.441Z,1010.55
2017-03-23T02:42:43.624Z,1010.53
2017-03-23T02:43:54.614Z,1010.5
2017-03-23T02:45:05.595Z,1010.51
2017-03-23T02:46:16.578Z,1010.52
2017-03-23T02:47:27.557Z,1010.48
2017-03-23T02:48:38.552Z,1010.51
2017-03-23T02:49:49.537Z,1010.46
2017-03-23T02:51:00.570Z,1010.47
2017-03-23T02:52:11.585Z,1010.48
2017-03-23T02:53:22.772Z,1010.45
2017-03-23T02:54:33.754Z,1010.42
2017-03-23T02:55:44.748Z,1010.41
2017-03-23T02:56:55.928Z,1010.37
2017-03-23T02:58:06.918Z,1010.41
2017-03-23T02:59:18.106Z,1010.44
2017-03-23T03:00:29.084Z,1010.39
2017-03-23T03:01:40.125Z,1010.41
2017-03-23T03:02:51.312Z,1010.46
2017-03-23T03:04:02.304Z,1010.41
2017-03-23T03:05:13.486Z,1010.44
2017-03-23T03:06:24.474Z,1010.49
2017-03-23T03:07:35.476Z,1010.47
2017-03-23T03:08:46.460Z,1010.49
2017-03-23T03:09:57.654Z,1010.51
2017-03-23T03:11:08.627Z,1010.51
2017-03-23T03:12:19.613Z,1010.53
2017-03-23T03:13:30.636Z,1010.56
2017-03-23T03:14:41.624Z,1010.54
2017-03-23T03:15:52.609Z,1010.57
2017-03-23T03:17:03.599Z,1010.55
2017-03-23T03:18:14.581Z,1010.57
2017-03-23T03:19:25.566Z,1010.59
2017-03-23T03:20:36.559Z,1010.56
2017-03-23T03:21:47.535Z,1010.58
2017-03-23T03:22:58.574Z,1010.57
2017-03-23T03:24:09.765Z,1010.54
2017-03-23T03:25:20.816Z,1010.54
2017-03-23T03:26:31.800Z,1010.5
2017-03-23T03:27:43.185Z,1010.45
2017-03-23T03:28:54.174Z,1010.46
2017-03-23T03:30:05.148Z,1010.39
2017-03-23T03:31:16.133Z,1010.36
2017-03-23T03:32:27.121Z,1010.35
2017-03-23T03:33:38.364Z,1010.35
2017-03-23T03:34:49.395Z,1010.33
2017-03-23T03:36:00.373Z,1010.27
2017-03-23T03:37:11.360Z,1010.27
2017-03-23T03:38:22.734Z,1010.26
2017-03-23T03:39:33.769Z,1010.26
2017-03-23T03:40:44.752Z,1010.29
2017-03-23T03:41:55.947Z,1010.33
2017-03-23T03:43:06.938Z,1010.34
2017-03-23T03:44:18.125Z,1010.34
2017-03-23T03:45:29.108Z,1010.34
2017-03-23T03:46:40.100Z,1010.35
2017-03-23T03:47:51.334Z,1010.37
2017-03-23T03:49:02.524Z,1010.35
2017-03-23T03:50:13.507Z,1010.41
2017-03-23T03:51:24.534Z,1010.37
2017-03-23T03:52:35.523Z,1010.38
2017-03-23T03:53:46.503Z,1010.38
2017-03-23T03:54:57.680Z,1010.38
2017-03-23T03:56:08.925Z,1010.35
2017-03-23T03:57:19.905Z,1010.39
2017-03-23T03:58:30.887Z,1010.41
2017-03-23T03:59:41.869Z,1010.44
2017-03-23T04:00:52.848Z,1010.46
2017-03-23T04:02:03.831Z,1010.49
2017-03-23T04:03:15.023Z,1010.5
2017-03-23T04:04:26.007Z,1010.54
2017-03-23T04:05:37.085Z,1010.51
2017-03-23T04:06:48.262Z,1010.54
2017-03-23T04:07:59.653Z,1010.55
2017-03-23T04:09:10.837Z,1010.57
2017-03-23T04:10:21.818Z,1010.55
2017-03-23T04:11:32.819Z,1010.56
2017-03-23T04:12:43.805Z,1010.57
2017-03-23T04:13:54.985Z,1010.56
2017-03-23T04:15:05.966Z,1010.58
2017-03-23T04:16:16.992Z,1010.62
2017-03-23T04:17:27.972Z,1010.59
2017-03-23T04:18:38.959Z,1010.62
2017-03-23T04:19:50.144Z,1010.65
2017-03-23T04:21:01.125Z,1010.64
2017-03-23T04:22:12.321Z,1010.71
2017-03-23T04:23:23.511Z,1010.74
2017-03-23T04:24:34.490Z,1010.76
2017-03-23T04:25:45.472Z,1010.76
2017-03-23T04:26:56.454Z,1010.72
2017-03-23T04:28:07.670Z,1010.77
2017-03-23T04:29:18.657Z,1010.78
2017-03-23T04:30:29.848Z,1010.82
2017-03-23T04:31:40.833Z,1010.83
2017-03-23T04:32:51.820Z,1010.81
2017-03-23T04:34:02.858Z,1010.85
2017-03-23T04:35:14.037Z,1010.91
2017-03-23T04:36:25.226Z,1010.89
2017-03-23T04:37:36.423Z,1010.96
2017-03-23T04:38:47.612Z,1010.98
2017-03-23T04:39:58.590Z,1010.97
2017-03-23T04:41:09.777Z,1011.02
2017-03-23T04:42:20.768Z,1010.98
2017-03-23T04:43:32.056Z,1011.02
2017-03-23T04:44:43.032Z,1011.03
2017-03-23T04:45:54.018Z,1011.03
2017-03-23T04:47:05.004Z,1011
2017-03-23T04:48:15.981Z,1011
2017-03-23T04:49:26.975Z,1011.03
2017-03-23T04:50:38.158Z,1011.02
2017-03-23T04:51:49.143Z,1011.03
2017-03-23T04:53:00.124Z,1011.03
2017-03-23T04:54:11.359Z,1011.01
2017-03-23T04:55:22.353Z,1011.03
2017-03-23T04:56:33.792Z,1011.01
2017-03-23T04:57:44.984Z,1011.03
2017-03-23T04:58:55.970Z,1010.99
2017-03-23T05:00:06.955Z,1010.99
2017-03-23T05:01:17.934Z,1010.99
2017-03-23T05:02:28.962Z,1011.03
2017-03-23T05:03:39.946Z,1011.05
2017-03-23T05:04:51.130Z,1011.05
2017-03-23T05:06:02.114Z,1011.05
2017-03-23T05:07:13.107Z,1011.06
2017-03-23T05:08:24.093Z,1011.11
2017-03-23T05:09:35.076Z,1011.1
2017-03-23T05:10:46.063Z,1011.1
2017-03-23T05:11:57.103Z,1011.09
2017-03-23T05:13:08.096Z,1011.07
2017-03-23T05:14:19.089Z,1011.1
2017-03-23T05:15:30.077Z,1011.02
2017-03-23T05:16:41.069Z,1011.01
2017-03-23T05:17:52.050Z,1011.01
2017-03-23T05:19:03.045Z,1011
2017-03-23T05:20:14.030Z,1011
2017-03-23T05:21:25.114Z,1010.98
2017-03-23T05:22:36.296Z,1011.01
2017-03-23T05:23:47.282Z,1011
2017-03-23T05:24:58.460Z,1011
2017-03-23T05:26:09.455Z,1010.99
2017-03-23T05:27:20.651Z,1010.98
2017-03-23T05:28:31.640Z,1010.97
2017-03-23T05:29:42.635Z,1010.95
2017-03-23T05:30:53.625Z,1011.01
2017-03-23T05:32:04.708Z,1011.06
2017-03-23T05:33:15.697Z,1011.1
2017-03-23T05:34:26.684Z,1011.1
2017-03-23T05:35:37.663Z,1011.11
2017-03-23T05:36:48.856Z,1011.14
2017-03-23T05:37:59.840Z,1011.16
2017-03-23T05:39:10.825Z,1011.18
2017-03-23T05:40:21.802Z,1011.23
2017-03-23T05:41:32.791Z,1011.17
2017-03-23T05:42:43.811Z,1011.22
2017-03-23T05:43:54.795Z,1011.25
2017-03-23T05:45:05.811Z,1011.31
2017-03-23T05:46:16.999Z,1011.3
2017-03-23T05:47:27.980Z,1011.34
2017-03-23T05:48:38.966Z,1011.38
2017-03-23T05:49:50.197Z,1011.36
2017-03-23T05:51:01.184Z,1011.34
2017-03-23T05:52:12.186Z,1011.41
2017-03-23T05:53:23.175Z,1011.34
2017-03-23T05:54:34.168Z,1011.38
2017-03-23T05:55:45.163Z,1011.38
2017-03-23T05:56:56.145Z,1011.34
2017-03-23T05:58:07.137Z,1011.35
2017-03-23T05:59:18.367Z,1011.33
2017-03-23T06:00:29.361Z,1011.34
2017-03-23T06:01:40.346Z,1011.35
2017-03-23T06:02:51.326Z,1011.33
2017-03-23T06:04:02.314Z,1011.32
2017-03-23T06:05:13.309Z,1011.32
2017-03-23T06:06:24.298Z,1011.34
2017-03-23T06:07:35.500Z,1011.36
2017-03-23T06:08:46.486Z,1011.32
2017-03-23T06:09:57.723Z,1011.39
2017-03-23T06:11:08.707Z,1011.43
2017-03-23T06:12:19.714Z,1011.44
2017-03-23T06:13:30.698Z,1011.43
2017-03-23T06:14:41.696Z,1011.48
2017-03-23T06:15:52.676Z,1011.48
2017-03-23T06:17:03.651Z,1011.49
2017-03-23T06:18:14.641Z,1011.52
2017-03-23T06:19:25.829Z,1011.59
2017-03-23T06:20:36.818Z,1011.58
2017-03-23T06:21:47.806Z,1011.62
2017-03-23T06:22:59.396Z,1011.65
2017-03-23T06:24:10.388Z,1011.67
2017-03-23T06:25:21.367Z,1011.69
2017-03-23T06:26:32.407Z,1011.71
2017-03-23T06:27:43.392Z,1011.7
2017-03-23T06:28:54.420Z,1011.74
2017-03-23T06:30:05.651Z,1011.75
2017-03-23T06:31:17.042Z,1011.8
2017-03-23T06:32:28.034Z,1011.82
2017-03-23T06:33:39.015Z,1011.82
2017-03-23T06:34:49.998Z,1011.82
2017-03-23T06:36:01.035Z,1011.79
2017-03-23T06:37:12.026Z,1011.81
2017-03-23T06:38:23.019Z,1011.81
2017-03-23T06:39:34.010Z,1011.86
2017-03-23T06:40:45.005Z,1011.87
2017-03-23T06:41:55.996Z,1011.92
2017-03-23T06:43:06.988Z,1011.92
2017-03-23T06:44:17.980Z,1011.9
2017-03-23T06:45:28.973Z,1011.95
2017-03-23T06:46:40.217Z,1011.95
2017-03-23T06:47:51.209Z,1011.99
2017-03-23T06:49:02.193Z,1011.91
2017-03-23T06:50:13.183Z,1011.97
2017-03-23T06:51:24.384Z,1011.99
2017-03-23T06:52:35.381Z,1011.99
2017-03-23T06:53:46.364Z,1012.04
2017-03-23T06:54:57.565Z,1012.05
2017-03-23T06:56:08.554Z,1012.05
2017-03-23T06:57:19.547Z,1012.1
2017-03-23T06:58:30.531Z,1012.14
2017-03-23T06:59:41.525Z,1012.13
2017-03-23T07:00:52.722Z,1012.13
2017-03-23T07:02:03.702Z,1012.17
2017-03-23T07:03:14.679Z,1012.17
2017-03-23T07:04:25.725Z,1012.22
2017-03-23T07:05:36.707Z,1012.26
2017-03-23T07:06:47.696Z,1012.23
2017-03-23T07:07:58.677Z,1012.26
2017-03-23T07:09:09.871Z,1012.29
2017-03-23T07:10:20.873Z,1012.31
2017-03-23T07:11:32.266Z,1012.33
2017-03-23T07:12:43.661Z,1012.29
2017-03-23T07:13:54.913Z,1012.3
2017-03-23T07:15:05.907Z,1012.38
2017-03-23T07:16:16.898Z,1012.36
2017-03-23T07:17:27.888Z,1012.35
2017-03-23T07:18:38.880Z,1012.32
2017-03-23T07:19:49.872Z,1012.29
2017-03-23T07:21:00.873Z,1012.33
2017-03-23T07:22:11.891Z,1012.37
2017-03-23T07:23:23.088Z,1012.37
2017-03-23T07:24:34.336Z,1012.39
2017-03-23T07:25:45.732Z,1012.37
2017-03-23T07:26:56.719Z,1012.43
2017-03-23T07:28:07.704Z,1012.37
2017-03-23T07:29:18.705Z,1012.38
2017-03-23T07:30:30.108Z,1012.44
2017-03-23T07:31:41.106Z,1012.42
2017-03-23T07:32:52.096Z,1012.47
2017-03-23T07:34:03.092Z,1012.5
2017-03-23T07:35:14.092Z,1012.47
2017-03-23T07:36:25.094Z,1012.42
2017-03-23T07:37:36.095Z,1012.42
2017-03-23T07:38:47.095Z,1012.4
2017-03-23T07:39:58.289Z,1012.33
2017-03-23T07:41:09.349Z,1012.39
2017-03-23T07:42:20.349Z,1012.48
2017-03-23T07:43:31.344Z,1012.51
2017-03-23T07:44:42.342Z,1012.46
2017-03-23T07:45:53.341Z,1012.48
2017-03-23T07:47:04.341Z,1012.52
2017-03-23T07:48:15.337Z,1012.55
2017-03-23T07:49:26.325Z,1012.53
2017-03-23T07:50:37.569Z,1012.53
2017-03-23T07:51:48.583Z,1012.53
2017-03-23T07:52:59.576Z,1012.55
2017-03-23T07:54:10.572Z,1012.53
2017-03-23T07:55:21.580Z,1012.54
2017-03-23T07:56:32.814Z,1012.6
2017-03-23T07:57:43.813Z,1012.63
2017-03-23T07:58:54.809Z,1012.6
2017-03-23T08:00:06.009Z,1012.61
2017-03-23T08:01:17.050Z,1012.61
2017-03-23T08:02:28.041Z,1012.66
2017-03-23T08:03:39.042Z,1012.66
2017-03-23T08:04:50.038Z,1012.68
2017-03-23T08:06:01.040Z,1012.7
2017-03-23T08:07:12.087Z,1012.73
2017-03-23T08:08:23.293Z,1012.66
2017-03-23T08:09:34.287Z,1012.71
2017-03-23T08:10:45.497Z,1012.61
2017-03-23T08:11:56.498Z,1012.66
2017-03-23T08:13:07.697Z,1012.7
2017-03-23T08:14:18.696Z,1012.68
2017-03-23T08:15:29.935Z,1012.63
2017-03-23T08:16:40.939Z,1012.59
2017-03-23T08:17:51.946Z,1012.7
2017-03-23T08:19:02.993Z,1012.69
2017-03-23T08:20:14.014Z,1012.73
2017-03-23T08:21:25.014Z,1012.73
2017-03-23T08:22:36.011Z,1012.73
2017-03-23T08:23:47.015Z,1012.79
2017-03-23T08:24:58.007Z,1012.85
2017-03-23T08:26:09.011Z,1012.81
2017-03-23T08:27:20.013Z,1012.76
2017-03-23T08:28:31.065Z,1012.7
2017-03-23T08:29:42.070Z,1012.75
2017-03-23T08:30:53.281Z,1012.81
2017-03-23T08:32:04.488Z,1012.84
2017-03-23T08:33:15.486Z,1012.87
2017-03-23T08:34:26.492Z,1012.83
2017-03-23T08:35:37.504Z,1012.93
2017-03-23T08:36:48.508Z,1012.84
2017-03-23T08:37:59.515Z,1012.91
2017-03-23T08:39:10.979Z,1012.91
2017-03-23T08:40:21.982Z,1012.95
2017-03-23T08:41:32.988Z,1012.96
2017-03-23T08:42:43.986Z,1012.95
2017-03-23T08:43:55.187Z,1012.91
2017-03-23T08:45:06.190Z,1012.92
2017-03-23T08:46:17.397Z,1012.91
2017-03-23T08:47:28.401Z,1012.95
2017-03-23T08:48:39.403Z,1012.99
2017-03-23T08:49:50.405Z,1013.01
2017-03-23T08:51:01.409Z,1013.03
2017-03-23T08:52:12.623Z,1013.08
2017-03-23T08:53:23.631Z,1013.06
2017-03-23T08:54:34.632Z,1013.05
2017-03-23T08:55:45.636Z,1013.11
2017-03-23T08:56:56.700Z,1013.03
2017-03-23T08:58:07.718Z,1013.06
2017-03-23T08:59:18.928Z,1013.05
2017-03-23T09:00:29.929Z,1012.99
2017-03-23T09:01:40.942Z,1013.04
2017-03-23T09:02:51.951Z,1013.04
2017-03-23T09:04:03.154Z,1013.01
2017-03-23T09:05:14.176Z,1013.04
2017-03-23T09:06:25.448Z,1013.01
2017-03-23T09:07:36.456Z,1013.01
2017-03-23T09:08:47.467Z,1012.92
2017-03-23T09:09:58.473Z,1013.03
2017-03-23T09:11:09.487Z,1013.16
2017-03-23T09:12:20.497Z,1013.53
2017-03-23T09:13:31.504Z,1013.36
2017-03-23T09:14:42.537Z,1013.15
2017-03-23T09:15:53.556Z,1013.23
2017-03-23T09:17:04.619Z,1013.65
2017-03-23T09:18:15.632Z,1014.61
2017-03-23T09:19:26.651Z,1015.44
2017-03-23T09:20:37.658Z,1014.13
2017-03-23T09:21:48.670Z,1014.05
2017-03-23T09:22:59.931Z,1013.8
2017-03-23T09:24:10.945Z,1013.58
2017-03-23T09:25:21.958Z,1013.4
2017-03-23T09:26:32.963Z,1013.38
2017-03-23T09:27:43.976Z,1013.28
2017-03-23T09:28:54.985Z,1013.28
2017-03-23T09:30:06.020Z,1013.33
2017-03-23T09:31:17.027Z,1013.38
2017-03-23T09:32:28.032Z,1013.13
2017-03-23T09:33:39.244Z,1013.19
2017-03-23T09:34:50.506Z,1013.41
2017-03-23T09:36:01.512Z,1013.5
2017-03-23T09:37:12.518Z,1013.51
2017-03-23T09:38:23.740Z,1013.48
2017-03-23T09:39:34.741Z,1013.21
2017-03-23T09:40:45.748Z,1013.23
2017-03-23T09:41:56.753Z,1013.14
2017-03-23T09:43:07.760Z,1013.07
2017-03-23T09:44:19.219Z,1013.26
2017-03-23T09:45:30.436Z,1013.41
2017-03-23T09:46:41.446Z,1013.36
2017-03-23T09:47:52.652Z,1013.34
2017-03-23T09:49:03.658Z,1013.17
2017-03-23T09:50:14.673Z,1013.16
2017-03-23T09:51:25.680Z,1013.16
2017-03-23T09:52:36.693Z,1013.16
2017-03-23T09:53:47.705Z,1013.08
2017-03-23T09:54:59.214Z,1013.08
2017-03-23T09:56:10.238Z,1013.16
2017-03-23T09:57:21.248Z,1013.19
2017-03-23T09:58:32.250Z,1013.42
2017-03-23T09:59:43.259Z,1013.27
2017-03-23T10:00:54.467Z,1013.31
2017-03-23T10:02:05.474Z,1013.4
2017-03-23T10:03:16.480Z,1013.54
2017-03-23T10:04:27.478Z,1013.55
2017-03-23T10:05:38.486Z,1013.58
2017-03-23T10:06:49.527Z,1013.57
2017-03-23T10:08:00.537Z,1013.27
2017-03-23T10:09:11.545Z,1013.22
2017-03-23T10:10:22.541Z,1013.21
2017-03-23T10:11:33.598Z,1013.28
2017-03-23T10:12:44.610Z,1013.31
2017-03-23T10:13:55.821Z,1013.2
2017-03-23T10:15:07.022Z,1013.43
2017-03-23T10:16:18.024Z,1013.31
2017-03-23T10:17:29.077Z,1013.17
2017-03-23T10:18:40.081Z,1013.09
2017-03-23T10:19:51.083Z,1013.11
2017-03-23T10:21:02.084Z,1013.33
2017-03-23T10:22:13.488Z,1013.27
2017-03-23T10:23:24.691Z,1013.15
2017-03-23T10:24:35.690Z,1013.17
2017-03-23T10:25:46.699Z,1013.42
2017-03-23T10:26:57.951Z,1013.31
2017-03-23T10:28:08.963Z,1013.17
2017-03-23T10:29:20.169Z,1013.27
2017-03-23T10:30:31.180Z,1013.25
2017-03-23T10:31:42.173Z,1013.44
2017-03-23T10:32:53.374Z,1013.3
2017-03-23T10:34:04.374Z,1013.26
2017-03-23T10:35:15.369Z,1013.07
2017-03-23T10:36:26.575Z,1013.07
2017-03-23T10:37:37.821Z,1013.16
2017-03-23T10:38:48.823Z,1013.23
2017-03-23T10:39:59.822Z,1013.19
2017-03-23T10:41:10.823Z,1013.19
2017-03-23T10:42:21.872Z,1013.16
2017-03-23T10:43:32.895Z,1013.25
2017-03-23T10:44:43.889Z,1013.29
2017-03-23T10:45:55.093Z,1013.27
2017-03-23T10:47:06.086Z,1013.26
2017-03-23T10:48:17.092Z,1013.25
2017-03-23T10:49:28.338Z,1013.09
2017-03-23T10:50:39.744Z,1013.13
2017-03-23T10:51:50.734Z,1013.19
2017-03-23T10:53:01.735Z,1013.15
2017-03-23T10:54:12.733Z,1013.24
2017-03-23T10:55:23.738Z,1013.22
2017-03-23T10:56:34.742Z,1013.24
2017-03-23T10:57:45.741Z,1013.27
2017-03-23T10:58:56.988Z,1013.27
2017-03-23T11:00:07.998Z,1013.19
2017-03-23T11:01:18.995Z,1013.14
2017-03-23T11:02:30.200Z,1013.2
2017-03-23T11:03:41.405Z,1013.11
2017-03-23T11:04:52.606Z,1013.12
2017-03-23T11:06:03.600Z,1013.19
2017-03-23T11:07:14.602Z,1013.14
2017-03-23T11:08:25.604Z,1013.17
2017-03-23T11:09:36.859Z,1013.24
2017-03-23T11:10:47.853Z,1013.22
2017-03-23T11:11:58.862Z,1013.2
2017-03-23T11:13:09.901Z,1013.26
2017-03-23T11:14:20.902Z,1013.25
2017-03-23T11:15:32.114Z,1013.29
2017-03-23T11:16:43.316Z,1013.27
2017-03-23T11:17:54.506Z,1013.35
2017-03-23T11:19:05.708Z,1013.38
2017-03-23T11:20:16.905Z,1013.28
2017-03-23T11:21:28.111Z,1013.44
2017-03-23T11:22:39.106Z,1013.33
2017-03-23T11:23:50.106Z,1013.33
2017-03-23T11:25:01.138Z,1013.29
2017-03-23T11:26:12.196Z,1013.3
2017-03-23T11:27:23.193Z,1013.25
2017-03-23T11:28:34.183Z,1013.35
2017-03-23T11:29:45.189Z,1013.3
2017-03-23T11:30:56.192Z,1013.33
2017-03-23T11:32:07.392Z,1013.35
2017-03-23T11:33:18.396Z,1013.33
2017-03-23T11:34:29.390Z,1013.32
2017-03-23T11:35:40.438Z,1013.29
2017-03-23T11:36:51.646Z,1013.38
2017-03-23T11:38:02.657Z,1013.27
2017-03-23T11:39:13.653Z,1013.29
2017-03-23T11:40:24.645Z,1013.32
2017-03-23T11:41:35.640Z,1013.34
2017-03-23T11:42:46.635Z,1013.38
2017-03-23T11:43:57.628Z,1013.39
2017-03-23T11:45:08.618Z,1013.38
2017-03-23T11:46:19.665Z,1013.33
2017-03-23T11:47:30.662Z,1013.25
2017-03-23T11:48:41.663Z,1013.29
2017-03-23T11:49:53.068Z,1013.32
2017-03-23T11:51:04.059Z,1013.43
2017-03-23T11:52:15.309Z,1013.32
2017-03-23T11:53:26.302Z,1013.32
2017-03-23T11:54:37.296Z,1013.4
2017-03-23T11:55:48.502Z,1013.3
2017-03-23T11:56:59.491Z,1013.33
2017-03-23T11:58:10.487Z,1013.32
2017-03-23T11:59:21.686Z,1013.31
2017-03-23T12:00:32.682Z,1013.32
2017-03-23T12:01:43.696Z,1013.4
2017-03-23T12:02:54.694Z,1013.36
2017-03-23T12:04:05.950Z,1013.59
2017-03-23T12:05:16.952Z,1013.48
2017-03-23T12:06:27.951Z,1013.26
2017-03-23T12:07:39.155Z,1013.21
2017-03-23T12:08:50.156Z,1013.22
2017-03-23T12:10:01.149Z,1013.2
2017-03-23T12:11:12.143Z,1013.21
2017-03-23T12:12:23.145Z,1013.26
2017-03-23T12:13:34.386Z,1013.25
2017-03-23T12:14:45.370Z,1013.25
2017-03-23T12:15:56.364Z,1013.21
2017-03-23T12:17:07.359Z,1013.18
2017-03-23T12:18:18.349Z,1013.22
2017-03-23T12:19:29.347Z,1013.28
2017-03-23T12:20:40.345Z,1013.62
2017-03-23T12:21:51.347Z,1013.63
2017-03-23T12:23:02.344Z,1013.64
2017-03-23T12:24:13.389Z,1013.4
2017-03-23T12:25:56.000Z,1013.37
2017-03-23T12:27:07.187Z,1013.2
2017-03-23T12:28:18.391Z,1013.34
2017-03-23T12:29:29.437Z,1013.31
2017-03-23T12:30:40.428Z,1013.2
2017-03-23T12:31:51.428Z,1013.25
2017-03-23T12:33:02.430Z,1013.33
2017-03-23T12:34:13.425Z,1013.33
2017-03-23T12:35:24.432Z,1013.34
2017-03-23T12:36:35.436Z,1013.36
2017-03-23T12:37:46.470Z,1013.31
2017-03-23T12:38:57.463Z,1013.32
2017-03-23T12:40:08.510Z,1013.27
2017-03-23T12:41:19.708Z,1013.29
2017-03-23T12:42:30.911Z,1013.27
2017-03-23T12:43:41.907Z,1013.19
2017-03-23T12:44:52.908Z,1013.23
2017-03-23T12:46:03.913Z,1013.2
2017-03-23T12:47:15.111Z,1013.29
2017-03-23T12:48:26.107Z,1013.25
2017-03-23T12:49:37.102Z,1013.29
2017-03-23T12:50:48.146Z,1013.25
2017-03-23T12:51:59.345Z,1013.25
2017-03-23T12:53:10.743Z,1013.29
2017-03-23T12:54:21.942Z,1013.26
2017-03-23T12:55:32.937Z,1013.23
2017-03-23T12:56:44.132Z,1013.2
2017-03-23T12:57:55.207Z,1013.15
2017-03-23T12:59:06.399Z,1013.12
2017-03-23T13:00:17.387Z,1013.11
2017-03-23T13:01:28.599Z,1013.11
2017-03-23T13:02:39.654Z,1013.1
2017-03-23T13:03:50.651Z,1013.15
2017-03-23T13:05:01.643Z,1013.13
2017-03-23T13:06:12.648Z,1013.18
2017-03-23T13:07:23.645Z,1013.18
2017-03-23T13:08:34.643Z,1013.17
2017-03-23T13:09:45.678Z,1013.12
2017-03-23T13:10:56.669Z,1013.09
2017-03-23T13:12:07.917Z,1013.05
2017-03-23T13:13:18.919Z,1013.04
2017-03-23T13:14:29.912Z,1013
2017-03-23T13:15:40.909Z,1013.02
2017-03-23T13:16:51.908Z,1013
2017-03-23T13:18:02.902Z,1012.99
2017-03-23T13:19:14.088Z,1013
2017-03-23T13:20:25.087Z,1012.93
2017-03-23T13:21:36.088Z,1013.02
2017-03-23T13:22:47.137Z,1012.96
2017-03-23T13:23:58.126Z,1012.99
2017-03-23T13:25:09.123Z,1012.94
2017-03-23T13:26:20.114Z,1012.91
2017-03-23T13:27:31.118Z,1012.88
2017-03-23T13:28:42.358Z,1012.91
2017-03-23T13:29:53.553Z,1012.96
2017-03-23T13:31:04.552Z,1012.89
2017-03-23T13:32:15.550Z,1012.89
2017-03-23T13:33:26.546Z,1012.88
2017-03-23T13:34:37.541Z,1012.92
2017-03-23T13:35:48.541Z,1012.92
2017-03-23T13:36:59.548Z,1012.93
2017-03-23T13:38:10.540Z,1012.93
2017-03-23T13:39:21.526Z,1012.9
2017-03-23T13:40:33.018Z,1012.87
2017-03-23T13:41:44.008Z,1012.89
2017-03-23T13:42:55.001Z,1012.92
2017-03-23T13:44:06.002Z,1012.96
2017-03-23T13:45:17.001Z,1013
2017-03-23T13:46:27.987Z,1013
2017-03-23T13:47:38.982Z,1013.02
2017-03-23T13:48:49.979Z,1012.99
2017-03-23T13:50:01.276Z,1013.02
2017-03-23T13:51:12.271Z,1012.97
2017-03-23T13:52:23.469Z,1012.98
2017-03-23T13:53:34.461Z,1012.96
2017-03-23T13:54:45.459Z,1012.93
2017-03-23T13:55:56.656Z,1012.96
2017-03-23T13:57:07.849Z,1012.96
2017-03-23T13:58:18.856Z,1013
2017-03-23T13:59:29.856Z,1012.94
2017-03-23T14:00:41.302Z,1012.98
2017-03-23T14:01:52.336Z,1013.03
2017-03-23T14:03:03.735Z,1013.06
2017-03-23T14:04:14.927Z,1013.1
2017-03-23T14:05:25.919Z,1013.13
2017-03-23T14:06:36.913Z,1013.14
2017-03-23T14:07:48.110Z,1013.22
2017-03-23T14:08:59.310Z,1013.15
2017-03-23T14:10:10.306Z,1013.14
2017-03-23T14:11:21.296Z,1013.17
2017-03-23T14:12:32.303Z,1013.17
2017-03-23T14:13:43.350Z,1013.16
2017-03-23T14:14:54.341Z,1013.17
2017-03-23T14:16:05.333Z,1013.11
2017-03-23T14:17:16.333Z,1013.09
2017-03-23T14:18:27.383Z,1013.1
2017-03-23T14:19:38.584Z,1013.08
2017-03-23T14:20:49.776Z,1013.08
2017-03-23T14:22:00.783Z,1013.07
2017-03-23T14:23:11.772Z,1013.14
2017-03-23T14:24:22.754Z,1013.14